sensor_id;sensor_type;location;lat;lon;timestamp;P1;durP1;ratioP1;P2;durP2;ratioP2
73585;SDS011;61865;50.232;18.614;2023-05-27T00:01:06;15.10;;;5.30;;
73585;SDS011;61865;50.232;18.614;2023-05-27T00:03:28;11.10;;;5.30;;
73585;SDS011;61865;50.232;18.614;2023-05-27T00:05:50;13.07;;;5.65;;
73585;SDS011;61865;50.232;18.614;2023-05-27T00:08:12;16.02;;;5.00;;
73585;SDS011;61865;50.232;18.614;2023-05-27T00:10:34;11.23;;;5.75;;
73585;SDS011;61865;50.232;18.614;2023-05-27T00:12:56;14.43;;;5.80;;
73585;SDS011;61865;50.232;18.614;2023-05-27T00:15:20;17.70;;;5.70;;
73585;SDS011;61865;50.232;18.614;2023-05-27T00:17:42;17.38;;;5.25;;
73585;SDS011;61865;50.232;18.614;2023-05-27T00:20:04;15.23;;;6.03;;
73585;SDS011;61865;50.232;18.614;2023-05-27T00:22:28;12.35;;;5.68;;
73585;SDS011;61865;50.232;18.614;2023-05-27T00:24:50;17.25;;;5.70;;
73585;SDS011;61865;50.232;18.614;2023-05-27T00:27:12;14.90;;;5.65;;
73585;SDS011;61865;50.232;18.614;2023-05-27T00:29:33;21.60;;;5.68;;
73585;SDS011;61865;50.232;18.614;2023-05-27T00:31:57;14.00;;;5.53;;
73585;SDS011;61865;50.232;18.614;2023-05-27T00:34:22;14.10;;;5.95;;
73585;SDS011;61865;50.232;18.614;2023-05-27T00:36:44;17.67;;;5.55;;
73585;SDS011;61865;50.232;18.614;2023-05-27T00:39:06;14.90;;;5.50;;
73585;SDS011;61865;50.232;18.614;2023-05-27T00:41:28;14.55;;;5.90;;
73585;SDS011;61865;50.232;18.614;2023-05-27T00:43:50;13.77;;;6.25;;
73585;SDS011;61865;50.232;18.614;2023-05-27T00:46:12;19.67;;;5.80;;
73585;SDS011;61865;50.232;18.614;2023-05-27T00:48:36;13.38;;;5.63;;
73585;SDS011;61865;50.232;18.614;2023-05-27T00:50:58;11.23;;;5.50;;
73585;SDS011;61865;50.232;18.614;2023-05-27T00:53:20;15.80;;;5.60;;
73585;SDS011;61865;50.232;18.614;2023-05-27T00:55:44;11.07;;;5.22;;
73585;SDS011;61865;50.232;18.614;2023-05-27T00:58:06;12.63;;;6.75;;
73585;SDS011;61865;50.232;18.614;2023-05-27T01:00:29;18.20;;;6.13;;
73585;SDS011;61865;50.232;18.614;2023-05-27T01:02:51;18.75;;;5.97;;
73585;SDS011;61865;50.232;18.614;2023-05-27T01:05:15;16.05;;;5.75;;
73585;SDS011;61865;50.232;18.614;2023-05-27T01:07:40;11.80;;;5.43;;
73585;SDS011;61865;50.232;18.614;2023-05-27T01:10:18;12.80;;;5.22;;
73585;SDS011;61865;50.232;18.614;2023-05-27T01:12:51;17.15;;;6.20;;
73585;SDS011;61865;50.232;18.614;2023-05-27T01:15:18;22.10;;;5.72;;
73585;SDS011;61865;50.232;18.614;2023-05-27T01:17:41;14.52;;;6.00;;
73585;SDS011;61865;50.232;18.614;2023-05-27T01:20:06;17.45;;;6.55;;
73585;SDS011;61865;50.232;18.614;2023-05-27T01:22:31;17.52;;;5.35;;
73585;SDS011;61865;50.232;18.614;2023-05-27T01:24:56;18.25;;;7.05;;
73585;SDS011;61865;50.232;18.614;2023-05-27T01:27:18;16.13;;;6.10;;
73585;SDS011;61865;50.232;18.614;2023-05-27T01:29:41;17.98;;;6.60;;
73585;SDS011;61865;50.232;18.614;2023-05-27T01:32:04;22.73;;;7.28;;
73585;SDS011;61865;50.232;18.614;2023-05-27T01:34:33;17.85;;;6.50;;
73585;SDS011;61865;50.232;18.614;2023-05-27T01:36:58;17.55;;;5.97;;
73585;SDS011;61865;50.232;18.614;2023-05-27T01:39:25;16.00;;;6.65;;
73585;SDS011;61865;50.232;18.614;2023-05-27T01:41:48;17.77;;;5.70;;
73585;SDS011;61865;50.232;18.614;2023-05-27T01:44:11;19.05;;;6.72;;
73585;SDS011;61865;50.232;18.614;2023-05-27T01:46:37;15.82;;;6.30;;
73585;SDS011;61865;50.232;18.614;2023-05-27T01:48:59;19.27;;;6.20;;
73585;SDS011;61865;50.232;18.614;2023-05-27T01:51:21;18.38;;;6.13;;
73585;SDS011;61865;50.232;18.614;2023-05-27T01:53:43;15.82;;;6.07;;
73585;SDS011;61865;50.232;18.614;2023-05-27T01:56:06;15.55;;;6.68;;
73585;SDS011;61865;50.232;18.614;2023-05-27T01:58:28;18.58;;;5.68;;
73585;SDS011;61865;50.232;18.614;2023-05-27T02:00:50;20.75;;;6.25;;
73585;SDS011;61865;50.232;18.614;2023-05-27T02:03:12;14.30;;;6.28;;
73585;SDS011;61865;50.232;18.614;2023-05-27T02:05:34;15.50;;;6.35;;
73585;SDS011;61865;50.232;18.614;2023-05-27T02:07:57;17.08;;;5.88;;
73585;SDS011;61865;50.232;18.614;2023-05-27T02:10:18;16.20;;;5.63;;
73585;SDS011;61865;50.232;18.614;2023-05-27T02:12:42;14.07;;;5.70;;
73585;SDS011;61865;50.232;18.614;2023-05-27T02:15:04;18.45;;;6.90;;
73585;SDS011;61865;50.232;18.614;2023-05-27T02:17:27;25.13;;;7.55;;
73585;SDS011;61865;50.232;18.614;2023-05-27T02:19:49;18.45;;;7.88;;
73585;SDS011;61865;50.232;18.614;2023-05-27T02:22:11;16.35;;;6.18;;
73585;SDS011;61865;50.232;18.614;2023-05-27T02:24:34;15.43;;;6.30;;
73585;SDS011;61865;50.232;18.614;2023-05-27T02:26:55;16.70;;;6.55;;
73585;SDS011;61865;50.232;18.614;2023-05-27T02:29:19;18.35;;;6.75;;
73585;SDS011;61865;50.232;18.614;2023-05-27T02:31:41;17.08;;;6.20;;
73585;SDS011;61865;50.232;18.614;2023-05-27T02:34:03;17.15;;;6.43;;
73585;SDS011;61865;50.232;18.614;2023-05-27T02:36:25;18.42;;;6.25;;
73585;SDS011;61865;50.232;18.614;2023-05-27T02:38:47;13.98;;;6.70;;
73585;SDS011;61865;50.232;18.614;2023-05-27T02:41:09;14.18;;;6.38;;
73585;SDS011;61865;50.232;18.614;2023-05-27T02:43:31;17.50;;;6.35;;
73585;SDS011;61865;50.232;18.614;2023-05-27T02:45:54;16.98;;;6.80;;
73585;SDS011;61865;50.232;18.614;2023-05-27T02:48:16;23.27;;;7.13;;
73585;SDS011;61865;50.232;18.614;2023-05-27T02:50:38;21.13;;;6.72;;
73585;SDS011;61865;50.232;18.614;2023-05-27T02:53:00;21.35;;;7.00;;
73585;SDS011;61865;50.232;18.614;2023-05-27T02:55:22;19.25;;;6.80;;
73585;SDS011;61865;50.232;18.614;2023-05-27T02:57:44;21.88;;;6.90;;
73585;SDS011;61865;50.232;18.614;2023-05-27T03:00:07;19.92;;;7.88;;
73585;SDS011;61865;50.232;18.614;2023-05-27T03:02:31;14.43;;;6.60;;
73585;SDS011;61865;50.232;18.614;2023-05-27T03:04:53;26.02;;;6.88;;
73585;SDS011;61865;50.232;18.614;2023-05-27T03:07:17;15.25;;;6.22;;
73585;SDS011;61865;50.232;18.614;2023-05-27T03:09:38;20.80;;;6.97;;
73585;SDS011;61865;50.232;18.614;2023-05-27T03:12:01;20.30;;;7.07;;
73585;SDS011;61865;50.232;18.614;2023-05-27T03:14:23;21.40;;;7.53;;
73585;SDS011;61865;50.232;18.614;2023-05-27T03:16:45;21.80;;;7.20;;
73585;SDS011;61865;50.232;18.614;2023-05-27T03:19:08;17.45;;;7.50;;
73585;SDS011;61865;50.232;18.614;2023-05-27T03:21:30;15.35;;;6.40;;
73585;SDS011;61865;50.232;18.614;2023-05-27T03:23:52;27.08;;;7.38;;
73585;SDS011;61865;50.232;18.614;2023-05-27T03:26:14;16.92;;;7.00;;
73585;SDS011;61865;50.232;18.614;2023-05-27T03:28:36;21.70;;;6.60;;
73585;SDS011;61865;50.232;18.614;2023-05-27T03:30:58;20.02;;;6.68;;
73585;SDS011;61865;50.232;18.614;2023-05-27T03:33:20;19.13;;;7.05;;
73585;SDS011;61865;50.232;18.614;2023-05-27T03:35:44;18.98;;;6.88;;
73585;SDS011;61865;50.232;18.614;2023-05-27T03:38:06;18.90;;;7.18;;
73585;SDS011;61865;50.232;18.614;2023-05-27T03:40:28;21.55;;;6.80;;
73585;SDS011;61865;50.232;18.614;2023-05-27T03:42:50;16.23;;;7.03;;
73585;SDS011;61865;50.232;18.614;2023-05-27T03:45:12;17.17;;;6.68;;
73585;SDS011;61865;50.232;18.614;2023-05-27T03:47:34;20.10;;;8.05;;
73585;SDS011;61865;50.232;18.614;2023-05-27T03:49:56;14.73;;;6.22;;
73585;SDS011;61865;50.232;18.614;2023-05-27T03:52:20;20.33;;;7.07;;
73585;SDS011;61865;50.232;18.614;2023-05-27T03:54:42;18.45;;;6.75;;
73585;SDS011;61865;50.232;18.614;2023-05-27T03:57:04;19.85;;;7.50;;
73585;SDS011;61865;50.232;18.614;2023-05-27T03:59:27;18.38;;;6.45;;
73585;SDS011;61865;50.232;18.614;2023-05-27T04:01:51;21.90;;;6.47;;
73585;SDS011;61865;50.232;18.614;2023-05-27T04:04:13;21.10;;;6.20;;
73585;SDS011;61865;50.232;18.614;2023-05-27T04:06:35;16.65;;;7.03;;
73585;SDS011;61865;50.232;18.614;2023-05-27T04:08:59;17.27;;;6.85;;
73585;SDS011;61865;50.232;18.614;2023-05-27T04:11:20;13.82;;;7.05;;
73585;SDS011;61865;50.232;18.614;2023-05-27T04:13:42;15.10;;;6.10;;
73585;SDS011;61865;50.232;18.614;2023-05-27T04:16:05;18.00;;;6.60;;
73585;SDS011;61865;50.232;18.614;2023-05-27T04:18:27;13.35;;;6.15;;
73585;SDS011;61865;50.232;18.614;2023-05-27T04:20:49;7.85;;;4.10;;
73585;SDS011;61865;50.232;18.614;2023-05-27T04:23:12;13.82;;;5.93;;
73585;SDS011;61865;50.232;18.614;2023-05-27T04:25:35;15.48;;;5.75;;
73585;SDS011;61865;50.232;18.614;2023-05-27T04:27:59;11.75;;;4.53;;
73585;SDS011;61865;50.232;18.614;2023-05-27T04:30:24;12.60;;;5.05;;
73585;SDS011;61865;50.232;18.614;2023-05-27T04:32:46;14.40;;;5.43;;
73585;SDS011;61865;50.232;18.614;2023-05-27T04:35:08;22.48;;;6.40;;
73585;SDS011;61865;50.232;18.614;2023-05-27T04:37:30;19.95;;;5.68;;
73585;SDS011;61865;50.232;18.614;2023-05-27T04:39:52;13.00;;;4.25;;
73585;SDS011;61865;50.232;18.614;2023-05-27T04:42:18;15.75;;;5.53;;
73585;SDS011;61865;50.232;18.614;2023-05-27T04:44:40;9.98;;;4.07;;
73585;SDS011;61865;50.232;18.614;2023-05-27T04:47:03;10.02;;;4.00;;
73585;SDS011;61865;50.232;18.614;2023-05-27T04:49:25;20.38;;;5.68;;
73585;SDS011;61865;50.232;18.614;2023-05-27T04:51:47;17.73;;;6.10;;
73585;SDS011;61865;50.232;18.614;2023-05-27T04:54:09;12.27;;;4.53;;
73585;SDS011;61865;50.232;18.614;2023-05-27T04:56:31;12.27;;;5.57;;
73585;SDS011;61865;50.232;18.614;2023-05-27T04:58:55;13.00;;;4.43;;
73585;SDS011;61865;50.232;18.614;2023-05-27T05:01:18;11.15;;;4.97;;
73585;SDS011;61865;50.232;18.614;2023-05-27T05:03:45;18.63;;;6.13;;
73585;SDS011;61865;50.232;18.614;2023-05-27T05:06:12;15.63;;;4.78;;
73585;SDS011;61865;50.232;18.614;2023-05-27T05:08:34;16.70;;;5.15;;
73585;SDS011;61865;50.232;18.614;2023-05-27T05:10:56;20.85;;;5.78;;
73585;SDS011;61865;50.232;18.614;2023-05-27T05:13:18;14.38;;;5.47;;
73585;SDS011;61865;50.232;18.614;2023-05-27T05:15:41;19.48;;;5.57;;
73585;SDS011;61865;50.232;18.614;2023-05-27T05:18:04;15.95;;;5.07;;
73585;SDS011;61865;50.232;18.614;2023-05-27T05:20:26;12.00;;;4.78;;
73585;SDS011;61865;50.232;18.614;2023-05-27T05:22:48;17.17;;;5.07;;
73585;SDS011;61865;50.232;18.614;2023-05-27T05:25:10;13.98;;;4.78;;
73585;SDS011;61865;50.232;18.614;2023-05-27T05:27:32;18.45;;;5.43;;
73585;SDS011;61865;50.232;18.614;2023-05-27T05:29:56;15.27;;;4.57;;
73585;SDS011;61865;50.232;18.614;2023-05-27T05:32:19;18.45;;;4.95;;
73585;SDS011;61865;50.232;18.614;2023-05-27T05:34:41;18.00;;;5.35;;
73585;SDS011;61865;50.232;18.614;2023-05-27T05:37:04;16.63;;;5.82;;
73585;SDS011;61865;50.232;18.614;2023-05-27T05:39:26;22.73;;;6.03;;
73585;SDS011;61865;50.232;18.614;2023-05-27T05:41:48;16.42;;;4.90;;
73585;SDS011;61865;50.232;18.614;2023-05-27T05:44:14;18.40;;;6.28;;
73585;SDS011;61865;50.232;18.614;2023-05-27T05:46:37;16.40;;;5.63;;
73585;SDS011;61865;50.232;18.614;2023-05-27T05:49:00;18.13;;;5.80;;
73585;SDS011;61865;50.232;18.614;2023-05-27T05:51:22;22.15;;;6.57;;
73585;SDS011;61865;50.232;18.614;2023-05-27T05:53:44;12.80;;;5.20;;
73585;SDS011;61865;50.232;18.614;2023-05-27T05:56:06;18.98;;;5.60;;
73585;SDS011;61865;50.232;18.614;2023-05-27T05:58:28;17.70;;;5.30;;
73585;SDS011;61865;50.232;18.614;2023-05-27T06:00:50;17.27;;;5.65;;
73585;SDS011;61865;50.232;18.614;2023-05-27T06:03:12;27.10;;;6.07;;
73585;SDS011;61865;50.232;18.614;2023-05-27T06:05:35;12.88;;;4.85;;
73585;SDS011;61865;50.232;18.614;2023-05-27T06:07:57;15.70;;;5.75;;
73585;SDS011;61865;50.232;18.614;2023-05-27T06:10:20;28.77;;;5.70;;
73585;SDS011;61865;50.232;18.614;2023-05-27T06:12:42;16.00;;;5.45;;
73585;SDS011;61865;50.232;18.614;2023-05-27T06:15:04;20.17;;;6.90;;
73585;SDS011;61865;50.232;18.614;2023-05-27T06:17:27;18.25;;;5.35;;
73585;SDS011;61865;50.232;18.614;2023-05-27T06:19:49;15.07;;;5.40;;
73585;SDS011;61865;50.232;18.614;2023-05-27T06:22:12;14.93;;;5.65;;
73585;SDS011;61865;50.232;18.614;2023-05-27T06:24:35;17.10;;;5.47;;
73585;SDS011;61865;50.232;18.614;2023-05-27T06:26:57;17.38;;;5.22;;
73585;SDS011;61865;50.232;18.614;2023-05-27T06:29:18;11.52;;;4.95;;
73585;SDS011;61865;50.232;18.614;2023-05-27T06:31:40;14.18;;;4.95;;
73585;SDS011;61865;50.232;18.614;2023-05-27T06:34:02;19.95;;;5.78;;
73585;SDS011;61865;50.232;18.614;2023-05-27T06:36:25;16.20;;;5.03;;
73585;SDS011;61865;50.232;18.614;2023-05-27T06:38:49;23.77;;;6.13;;
73585;SDS011;61865;50.232;18.614;2023-05-27T06:41:11;16.33;;;5.63;;
73585;SDS011;61865;50.232;18.614;2023-05-27T06:43:33;22.45;;;6.00;;
73585;SDS011;61865;50.232;18.614;2023-05-27T06:45:55;16.88;;;5.65;;
73585;SDS011;61865;50.232;18.614;2023-05-27T06:48:17;16.48;;;5.13;;
73585;SDS011;61865;50.232;18.614;2023-05-27T06:50:40;27.55;;;5.75;;
73585;SDS011;61865;50.232;18.614;2023-05-27T06:53:01;20.17;;;5.40;;
73585;SDS011;61865;50.232;18.614;2023-05-27T06:55:25;20.58;;;6.03;;
73585;SDS011;61865;50.232;18.614;2023-05-27T06:57:47;18.35;;;6.30;;
73585;SDS011;61865;50.232;18.614;2023-05-27T07:00:09;21.27;;;6.57;;
73585;SDS011;61865;50.232;18.614;2023-05-27T07:02:32;13.38;;;5.03;;
73585;SDS011;61865;50.232;18.614;2023-05-27T07:04:54;16.35;;;5.45;;
73585;SDS011;61865;50.232;18.614;2023-05-27T07:07:16;15.27;;;4.80;;
73585;SDS011;61865;50.232;18.614;2023-05-27T07:09:38;12.90;;;4.75;;
73585;SDS011;61865;50.232;18.614;2023-05-27T07:12:02;20.13;;;5.82;;
73585;SDS011;61865;50.232;18.614;2023-05-27T07:14:26;20.65;;;5.72;;
73585;SDS011;61865;50.232;18.614;2023-05-27T07:16:48;17.48;;;4.88;;
73585;SDS011;61865;50.232;18.614;2023-05-27T07:19:10;23.30;;;5.70;;
73585;SDS011;61865;50.232;18.614;2023-05-27T07:21:32;20.83;;;4.97;;
73585;SDS011;61865;50.232;18.614;2023-05-27T07:23:54;24.40;;;6.30;;
73585;SDS011;61865;50.232;18.614;2023-05-27T07:26:18;18.08;;;5.53;;
73585;SDS011;61865;50.232;18.614;2023-05-27T07:28:41;16.75;;;4.95;;
73585;SDS011;61865;50.232;18.614;2023-05-27T07:31:04;22.20;;;5.47;;
73585;SDS011;61865;50.232;18.614;2023-05-27T07:33:26;18.02;;;5.25;;
73585;SDS011;61865;50.232;18.614;2023-05-27T07:35:48;16.52;;;4.95;;
73585;SDS011;61865;50.232;18.614;2023-05-27T07:38:10;19.77;;;5.47;;
73585;SDS011;61865;50.232;18.614;2023-05-27T07:40:32;19.88;;;5.65;;
73585;SDS011;61865;50.232;18.614;2023-05-27T07:42:54;14.32;;;4.97;;
73585;SDS011;61865;50.232;18.614;2023-05-27T07:45:17;18.95;;;5.82;;
73585;SDS011;61865;50.232;18.614;2023-05-27T07:47:39;23.15;;;5.25;;
73585;SDS011;61865;50.232;18.614;2023-05-27T07:50:01;17.35;;;4.40;;
73585;SDS011;61865;50.232;18.614;2023-05-27T07:52:24;16.27;;;5.13;;
73585;SDS011;61865;50.232;18.614;2023-05-27T07:54:46;16.45;;;4.97;;
73585;SDS011;61865;50.232;18.614;2023-05-27T07:57:08;27.83;;;5.28;;
73585;SDS011;61865;50.232;18.614;2023-05-27T07:59:30;18.05;;;5.25;;
73585;SDS011;61865;50.232;18.614;2023-05-27T08:01:54;13.02;;;4.90;;
73585;SDS011;61865;50.232;18.614;2023-05-27T08:04:15;19.20;;;5.72;;
73585;SDS011;61865;50.232;18.614;2023-05-27T08:06:37;20.85;;;5.65;;
73585;SDS011;61865;50.232;18.614;2023-05-27T08:08:59;18.55;;;4.95;;
73585;SDS011;61865;50.232;18.614;2023-05-27T08:11:21;13.50;;;4.47;;
73585;SDS011;61865;50.232;18.614;2023-05-27T08:13:44;15.63;;;4.78;;
73585;SDS011;61865;50.232;18.614;2023-05-27T08:16:06;14.15;;;3.75;;
73585;SDS011;61865;50.232;18.614;2023-05-27T08:18:30;13.38;;;5.03;;
73585;SDS011;61865;50.232;18.614;2023-05-27T08:20:52;15.48;;;4.80;;
73585;SDS011;61865;50.232;18.614;2023-05-27T08:23:14;16.58;;;4.93;;
73585;SDS011;61865;50.232;18.614;2023-05-27T08:25:36;15.93;;;4.22;;
73585;SDS011;61865;50.232;18.614;2023-05-27T08:27:58;12.18;;;3.47;;
73585;SDS011;61865;50.232;18.614;2023-05-27T08:30:22;11.85;;;4.18;;
73585;SDS011;61865;50.232;18.614;2023-05-27T08:32:44;12.13;;;4.28;;
73585;SDS011;61865;50.232;18.614;2023-05-27T08:35:08;17.98;;;5.22;;
73585;SDS011;61865;50.232;18.614;2023-05-27T08:37:31;9.50;;;4.13;;
73585;SDS011;61865;50.232;18.614;2023-05-27T08:39:53;12.50;;;3.83;;
73585;SDS011;61865;50.232;18.614;2023-05-27T08:42:17;14.40;;;4.47;;
73585;SDS011;61865;50.232;18.614;2023-05-27T08:44:40;8.57;;;3.22;;
73585;SDS011;61865;50.232;18.614;2023-05-27T08:47:02;14.90;;;3.88;;
73585;SDS011;61865;50.232;18.614;2023-05-27T08:49:25;16.67;;;4.43;;
73585;SDS011;61865;50.232;18.614;2023-05-27T08:51:48;14.07;;;4.75;;
73585;SDS011;61865;50.232;18.614;2023-05-27T08:54:12;11.50;;;3.95;;
73585;SDS011;61865;50.232;18.614;2023-05-27T08:56:34;15.48;;;4.78;;
73585;SDS011;61865;50.232;18.614;2023-05-27T08:58:57;12.85;;;4.03;;
73585;SDS011;61865;50.232;18.614;2023-05-27T09:01:21;15.15;;;3.80;;
73585;SDS011;61865;50.232;18.614;2023-05-27T09:03:44;20.63;;;5.00;;
73585;SDS011;61865;50.232;18.614;2023-05-27T09:06:06;13.07;;;4.35;;
73585;SDS011;61865;50.232;18.614;2023-05-27T09:08:29;14.63;;;4.22;;
73585;SDS011;61865;50.232;18.614;2023-05-27T09:10:51;15.93;;;4.15;;
73585;SDS011;61865;50.232;18.614;2023-05-27T09:13:13;12.63;;;4.20;;
73585;SDS011;61865;50.232;18.614;2023-05-27T09:15:45;12.98;;;4.07;;
73585;SDS011;61865;50.232;18.614;2023-05-27T09:18:07;18.00;;;4.53;;
73585;SDS011;61865;50.232;18.614;2023-05-27T09:20:30;15.05;;;5.07;;
73585;SDS011;61865;50.232;18.614;2023-05-27T09:22:55;22.92;;;4.07;;
73585;SDS011;61865;50.232;18.614;2023-05-27T09:25:20;14.52;;;4.20;;
73585;SDS011;61865;50.232;18.614;2023-05-27T09:27:44;12.25;;;3.45;;
73585;SDS011;61865;50.232;18.614;2023-05-27T09:30:07;11.90;;;4.40;;
73585;SDS011;61865;50.232;18.614;2023-05-27T09:32:30;16.67;;;5.10;;
73585;SDS011;61865;50.232;18.614;2023-05-27T09:34:52;18.27;;;4.53;;
73585;SDS011;61865;50.232;18.614;2023-05-27T09:37:15;10.32;;;3.85;;
73585;SDS011;61865;50.232;18.614;2023-05-27T09:39:40;13.55;;;3.72;;
73585;SDS011;61865;50.232;18.614;2023-05-27T09:42:04;14.57;;;4.07;;
73585;SDS011;61865;50.232;18.614;2023-05-27T09:44:27;16.40;;;4.60;;
73585;SDS011;61865;50.232;18.614;2023-05-27T09:46:50;11.27;;;3.95;;
73585;SDS011;61865;50.232;18.614;2023-05-27T09:49:14;17.65;;;4.25;;
73585;SDS011;61865;50.232;18.614;2023-05-27T09:51:37;14.32;;;3.75;;
73585;SDS011;61865;50.232;18.614;2023-05-27T09:54:02;12.35;;;4.20;;
73585;SDS011;61865;50.232;18.614;2023-05-27T09:56:25;11.63;;;4.03;;
73585;SDS011;61865;50.232;18.614;2023-05-27T09:58:49;8.70;;;3.20;;
73585;SDS011;61865;50.232;18.614;2023-05-27T10:01:11;28.75;;;3.95;;
73585;SDS011;61865;50.232;18.614;2023-05-27T10:03:34;16.48;;;4.35;;
73585;SDS011;61865;50.232;18.614;2023-05-27T10:05:59;17.83;;;3.75;;
73585;SDS011;61865;50.232;18.614;2023-05-27T10:08:23;10.20;;;3.33;;
73585;SDS011;61865;50.232;18.614;2023-05-27T10:10:47;11.90;;;3.67;;
73585;SDS011;61865;50.232;18.614;2023-05-27T10:13:09;13.88;;;4.57;;
73585;SDS011;61865;50.232;18.614;2023-05-27T10:15:33;12.15;;;3.60;;
73585;SDS011;61865;50.232;18.614;2023-05-27T10:17:56;10.25;;;3.75;;
73585;SDS011;61865;50.232;18.614;2023-05-27T10:20:28;10.00;;;3.92;;
73585;SDS011;61865;50.232;18.614;2023-05-27T10:22:52;10.23;;;3.63;;
73585;SDS011;61865;50.232;18.614;2023-05-27T10:25:14;11.55;;;4.05;;
73585;SDS011;61865;50.232;18.614;2023-05-27T10:27:41;8.45;;;2.75;;
73585;SDS011;61865;50.232;18.614;2023-05-27T10:30:04;11.02;;;3.63;;
73585;SDS011;61865;50.232;18.614;2023-05-27T10:32:29;13.82;;;3.58;;
73585;SDS011;61865;50.232;18.614;2023-05-27T10:34:51;13.00;;;3.38;;
73585;SDS011;61865;50.232;18.614;2023-05-27T10:37:19;12.55;;;3.50;;
73585;SDS011;61865;50.232;18.614;2023-05-27T10:39:41;12.50;;;3.75;;
73585;SDS011;61865;50.232;18.614;2023-05-27T10:42:20;11.98;;;3.67;;
73585;SDS011;61865;50.232;18.614;2023-05-27T10:44:42;8.63;;;3.53;;
73585;SDS011;61865;50.232;18.614;2023-05-27T10:47:08;12.70;;;3.78;;
73585;SDS011;61865;50.232;18.614;2023-05-27T10:49:34;10.07;;;3.17;;
73585;SDS011;61865;50.232;18.614;2023-05-27T10:51:57;11.30;;;3.90;;
73585;SDS011;61865;50.232;18.614;2023-05-27T10:54:25;9.38;;;3.28;;
73585;SDS011;61865;50.232;18.614;2023-05-27T10:56:50;12.15;;;3.60;;
73585;SDS011;61865;50.232;18.614;2023-05-27T10:59:12;11.82;;;3.45;;
73585;SDS011;61865;50.232;18.614;2023-05-27T11:01:41;6.97;;;2.95;;
73585;SDS011;61865;50.232;18.614;2023-05-27T11:04:05;10.18;;;3.40;;
73585;SDS011;61865;50.232;18.614;2023-05-27T11:06:30;9.45;;;3.65;;
73585;SDS011;61865;50.232;18.614;2023-05-27T11:08:53;14.07;;;3.38;;
73585;SDS011;61865;50.232;18.614;2023-05-27T11:11:15;9.38;;;2.75;;
73585;SDS011;61865;50.232;18.614;2023-05-27T11:13:38;8.88;;;3.22;;
73585;SDS011;61865;50.232;18.614;2023-05-27T11:16:04;8.05;;;2.67;;
73585;SDS011;61865;50.232;18.614;2023-05-27T11:18:37;5.60;;;2.50;;
73585;SDS011;61865;50.232;18.614;2023-05-27T11:21:01;13.55;;;3.83;;
73585;SDS011;61865;50.232;18.614;2023-05-27T11:23:34;13.23;;;3.55;;
73585;SDS011;61865;50.232;18.614;2023-05-27T11:25:57;11.65;;;3.72;;
73585;SDS011;61865;50.232;18.614;2023-05-27T11:28:19;11.93;;;4.00;;
73585;SDS011;61865;50.232;18.614;2023-05-27T11:30:41;12.30;;;3.38;;
73585;SDS011;61865;50.232;18.614;2023-05-27T11:33:03;8.82;;;3.05;;
73585;SDS011;61865;50.232;18.614;2023-05-27T11:35:25;10.73;;;3.85;;
73585;SDS011;61865;50.232;18.614;2023-05-27T11:37:50;9.93;;;3.50;;
73585;SDS011;61865;50.232;18.614;2023-05-27T11:40:14;7.97;;;3.03;;
73585;SDS011;61865;50.232;18.614;2023-05-27T11:42:36;8.40;;;3.70;;
73585;SDS011;61865;50.232;18.614;2023-05-27T11:44:58;7.88;;;2.97;;
73585;SDS011;61865;50.232;18.614;2023-05-27T11:47:20;9.98;;;3.38;;
73585;SDS011;61865;50.232;18.614;2023-05-27T11:49:43;6.43;;;2.72;;
73585;SDS011;61865;50.232;18.614;2023-05-27T11:52:05;7.78;;;3.13;;
73585;SDS011;61865;50.232;18.614;2023-05-27T11:54:27;11.23;;;3.50;;
73585;SDS011;61865;50.232;18.614;2023-05-27T11:56:54;7.82;;;2.65;;
73585;SDS011;61865;50.232;18.614;2023-05-27T11:59:17;5.93;;;2.72;;
73585;SDS011;61865;50.232;18.614;2023-05-27T12:01:39;4.82;;;2.60;;
73585;SDS011;61865;50.232;18.614;2023-05-27T12:04:01;9.52;;;2.65;;
73585;SDS011;61865;50.232;18.614;2023-05-27T12:06:23;7.35;;;2.88;;
73585;SDS011;61865;50.232;18.614;2023-05-27T12:08:46;10.18;;;3.25;;
73585;SDS011;61865;50.232;18.614;2023-05-27T12:11:08;10.20;;;3.22;;
73585;SDS011;61865;50.232;18.614;2023-05-27T12:13:31;6.70;;;2.50;;
73585;SDS011;61865;50.232;18.614;2023-05-27T12:15:53;7.20;;;3.13;;
73585;SDS011;61865;50.232;18.614;2023-05-27T12:18:15;10.45;;;3.10;;
73585;SDS011;61865;50.232;18.614;2023-05-27T12:20:37;7.78;;;2.65;;
73585;SDS011;61865;50.232;18.614;2023-05-27T12:22:59;7.53;;;3.22;;
73585;SDS011;61865;50.232;18.614;2023-05-27T12:25:22;6.93;;;2.85;;
73585;SDS011;61865;50.232;18.614;2023-05-27T12:27:43;6.13;;;2.83;;
73585;SDS011;61865;50.232;18.614;2023-05-27T12:30:08;5.95;;;2.67;;
73585;SDS011;61865;50.232;18.614;2023-05-27T12:32:30;5.80;;;2.70;;
73585;SDS011;61865;50.232;18.614;2023-05-27T12:34:52;8.30;;;3.03;;
73585;SDS011;61865;50.232;18.614;2023-05-27T12:37:14;9.65;;;3.40;;
73585;SDS011;61865;50.232;18.614;2023-05-27T12:39:36;11.07;;;3.10;;
73585;SDS011;61865;50.232;18.614;2023-05-27T12:41:58;7.78;;;3.30;;
73585;SDS011;61865;50.232;18.614;2023-05-27T12:44:21;6.10;;;2.70;;
73585;SDS011;61865;50.232;18.614;2023-05-27T12:46:44;8.18;;;3.53;;
73585;SDS011;61865;50.232;18.614;2023-05-27T12:49:06;8.43;;;3.20;;
73585;SDS011;61865;50.232;18.614;2023-05-27T12:51:28;8.07;;;2.83;;
73585;SDS011;61865;50.232;18.614;2023-05-27T12:53:52;7.53;;;2.65;;
73585;SDS011;61865;50.232;18.614;2023-05-27T12:56:14;4.68;;;2.47;;
73585;SDS011;61865;50.232;18.614;2023-05-27T12:58:36;11.45;;;2.95;;
73585;SDS011;61865;50.232;18.614;2023-05-27T13:00:58;6.13;;;3.00;;
73585;SDS011;61865;50.232;18.614;2023-05-27T13:03:21;7.13;;;3.05;;
73585;SDS011;61865;50.232;18.614;2023-05-27T13:05:44;6.82;;;3.15;;
73585;SDS011;61865;50.232;18.614;2023-05-27T13:08:06;7.57;;;3.78;;
73585;SDS011;61865;50.232;18.614;2023-05-27T13:10:28;8.02;;;2.80;;
73585;SDS011;61865;50.232;18.614;2023-05-27T13:12:50;6.15;;;3.15;;
73585;SDS011;61865;50.232;18.614;2023-05-27T13:15:13;8.65;;;3.28;;
73585;SDS011;61865;50.232;18.614;2023-05-27T13:17:36;8.40;;;3.38;;
73585;SDS011;61865;50.232;18.614;2023-05-27T13:19:59;7.85;;;3.35;;
73585;SDS011;61865;50.232;18.614;2023-05-27T13:22:22;10.90;;;3.70;;
73585;SDS011;61865;50.232;18.614;2023-05-27T13:24:45;3.65;;;2.25;;
73585;SDS011;61865;50.232;18.614;2023-05-27T13:27:07;6.50;;;2.58;;
73585;SDS011;61865;50.232;18.614;2023-05-27T13:29:30;8.88;;;3.42;;
73585;SDS011;61865;50.232;18.614;2023-05-27T13:31:52;7.13;;;3.10;;
73585;SDS011;61865;50.232;18.614;2023-05-27T13:34:13;5.40;;;2.92;;
73585;SDS011;61865;50.232;18.614;2023-05-27T13:36:38;7.22;;;3.20;;
73585;SDS011;61865;50.232;18.614;2023-05-27T13:39:00;6.53;;;2.65;;
73585;SDS011;61865;50.232;18.614;2023-05-27T13:41:22;6.22;;;2.65;;
73585;SDS011;61865;50.232;18.614;2023-05-27T13:43:45;6.57;;;2.70;;
73585;SDS011;61865;50.232;18.614;2023-05-27T13:46:07;5.85;;;2.53;;
73585;SDS011;61865;50.232;18.614;2023-05-27T13:48:29;3.28;;;2.00;;
73585;SDS011;61865;50.232;18.614;2023-05-27T13:50:51;7.45;;;2.55;;
73585;SDS011;61865;50.232;18.614;2023-05-27T13:53:15;6.60;;;2.45;;
73585;SDS011;61865;50.232;18.614;2023-05-27T13:55:37;5.93;;;3.05;;
73585;SDS011;61865;50.232;18.614;2023-05-27T13:57:59;11.10;;;3.15;;